Time;durP1;ratioP1;P1;durP2;ratioP2;P2;SDS_P1;SDS_P2;PMS_P1;PMS_P2;Temp;Humidity;BMP_temperature;BMP_pressure;BME280_temperature;BME280_humidity;BME280_pressure;Samples;Min_cycle;Max_cycle;Signal;HPM_P1;HPM_P2
2021/12/23 00:01:33;;;;;;;;;;;-0.20;99.90;;;;;;5122307;27;19927;-83
2021/12/23 00:03:59;;;;;;;;;;;-0.20;99.90;;;;;;5120499;27;20015;-83
2021/12/23 00:06:25;;;;;;;;;;;-0.20;99.90;;;;;;5140045;27;19923;-82
2021/12/23 00:08:50;;;;;;;;;;;-0.20;99.90;;;;;;5122976;27;20033;-83
2021/12/23 00:11:16;;;;;;;;;;;-0.20;99.90;;;;;;5119602;27;19923;-83
2021/12/23 00:13:50;;;;;;;;;;;-0.20;99.90;;;;;;5114793;27;19971;-84
2021/12/23 00:16:29;;;;;;;;;;;-0.10;99.90;;;;;;5139745;27;19923;-83
2021/12/23 00:19:01;;;;;;;;;;;-0.10;99.90;;;;;;5112994;27;20002;-83
2021/12/23 00:24:11;;;;;;;;;;;-0.10;99.90;;;;;;5119777;27;20280;-83
2021/12/23 00:26:37;;;;;;;;;;;-0.10;99.90;;;;;;5131382;27;19927;-83
2021/12/23 00:29:02;;;;;;;;;;;-0.10;99.90;;;;;;5121684;27;19946;-83
2021/12/23 00:31:28;;;;;;;;;;;-0.10;99.90;;;;;;5139701;27;19929;-83
2021/12/23 00:33:54;;;;;;;;;;;0.00;99.90;;;;;;5119123;27;19977;-83
2021/12/23 00:36:19;;;;;;;;;;;0.00;99.90;;;;;;5138993;27;19966;-83
2021/12/23 00:38:54;;;;;;;;;;;0.00;99.90;;;;;;5122841;27;19946;-83
2021/12/23 00:41:20;;;;;;;;;;;0.00;99.90;;;;;;5103715;27;19923;-83
2021/12/23 00:43:46;;;;;;;;;;;0.00;99.90;;;;;;5122193;27;19930;-83
2021/12/23 00:46:11;;;;;;;;;;;0.00;99.90;;;;;;5120036;27;19931;-83
2021/12/23 00:48:39;;;;;;;;;;;0.10;99.90;;;;;;5121128;27;19930;-83
2021/12/23 00:51:05;;;;;;;;;;;0.00;99.90;;;;;;5137630;27;19930;-83
2021/12/23 00:53:37;;;;;;;;;;;0.00;99.90;;;;;;5137123;27;19929;-83
2021/12/23 00:56:03;;;;;;;;;;;0.00;99.90;;;;;;5117305;28;19923;-83
2021/12/23 00:58:28;;;;;;;;;;;0.10;99.90;;;;;;5119973;27;19923;-83
2021/12/23 01:00:54;;;;;;;;;;;0.10;99.90;;;;;;5137329;27;19930;-83
2021/12/23 01:03:20;;;;;;;;;;;0.10;99.90;;;;;;5120520;27;20018;-83
2021/12/23 01:05:46;;;;;;;;;;;0.10;99.90;;;;;;5103840;27;19923;-83
2021/12/23 01:08:12;;;;;;;;;;;0.10;99.90;;;;;;5137857;27;19927;-83
2021/12/23 01:10:37;;;;;;;;;;;0.10;99.90;;;;;;5136578;27;19927;-83
2021/12/23 01:13:04;;;;;;;;;;;0.10;99.90;;;;;;5117255;28;19924;-83
2021/12/23 01:18:08;;;;;;;;;;;0.10;99.90;;;;;;5123880;27;19972;-83
2021/12/23 01:20:36;;;;;;;;;;;0.00;99.90;;;;;;5120729;27;19923;-83
2021/12/23 01:23:03;;;;;;;;;;;0.00;99.90;;;;;;5133600;27;19929;-83
2021/12/23 01:25:29;;;;;;;;;;;0.00;99.90;;;;;;5120360;27;19923;-83
2021/12/23 01:27:55;;;;;;;;;;;0.10;99.90;;;;;;5120155;27;19972;-83
2021/12/23 01:30:21;;;;;;;;;;;0.10;99.90;;;;;;5120198;27;19923;-83
2021/12/23 01:32:47;;;;;;;;;;;0.10;99.90;;;;;;5137521;27;19930;-82
2021/12/23 01:35:14;;;;;;;;;;;0.00;99.90;;;;;;5120195;27;19923;-83
2021/12/23 01:37:40;;;;;;;;;;;0.10;99.90;;;;;;5137388;27;19931;-83
2021/12/23 01:40:06;;;;;;;;;;;0.10;99.90;;;;;;5120131;27;20270;-83
2021/12/23 01:42:32;;;;;;;;;;;0.00;99.90;;;;;;5137514;27;20499;-82
2021/12/23 01:44:57;;;;;;;;;;;0.00;99.90;;;;;;5115567;27;19935;-83
2021/12/23 01:47:23;;;;;;;;;;;0.10;99.90;;;;;;5102153;27;19931;-83
2021/12/23 01:49:49;;;;;;;;;;;0.10;99.90;;;;;;5073256;27;1807917;-83
2021/12/23 01:52:15;;;;;;;;;;;0.10;99.90;;;;;;5120710;27;19923;-83
2021/12/23 01:54:40;;;;;;;;;;;0.10;99.90;;;;;;5118200;27;19934;-83
2021/12/23 01:57:06;;;;;;;;;;;0.00;99.90;;;;;;5121005;27;19930;-83
2021/12/23 01:59:32;;;;;;;;;;;0.10;99.90;;;;;;5120665;27;20275;-83
2021/12/23 02:01:58;;;;;;;;;;;0.00;99.90;;;;;;5119861;27;19931;-83
2021/12/23 02:04:23;;;;;;;;;;;0.00;99.90;;;;;;5097487;27;20313;-83
2021/12/23 02:06:49;;;;;;;;;;;0.00;99.90;;;;;;5119268;27;19927;-83
2021/12/23 02:09:15;;;;;;;;;;;0.00;99.90;;;;;;5120552;27;19923;-83
2021/12/23 02:11:41;;;;;;;;;;;0.00;99.90;;;;;;5116258;27;20283;-82
2021/12/23 02:14:07;;;;;;;;;;;0.00;99.90;;;;;;5117575;27;19933;-83
2021/12/23 02:16:32;;;;;;;;;;;0.00;99.90;;;;;;5119958;27;19930;-83
2021/12/23 02:18:58;;;;;;;;;;;0.10;99.90;;;;;;5138159;27;20014;-82
2021/12/23 02:21:23;;;;;;;;;;;0.00;99.90;;;;;;5113422;27;19963;-83
2021/12/23 02:23:49;;;;;;;;;;;0.00;99.90;;;;;;5137857;27;19927;-83
2021/12/23 02:26:15;;;;;;;;;;;0.00;99.90;;;;;;5137338;27;19930;-83
2021/12/23 02:28:40;;;;;;;;;;;0.00;99.90;;;;;;5133116;27;19931;-84
2021/12/23 02:31:06;;;;;;;;;;;0.00;99.90;;;;;;5099124;27;19929;-83
2021/12/23 02:33:34;;;;;;;;;;;0.00;99.90;;;;;;5107182;27;19968;-83
2021/12/23 02:35:59;;;;;;;;;;;0.00;99.90;;;;;;5119778;27;19923;-83
2021/12/23 02:38:26;;;;;;;;;;;0.00;99.90;;;;;;5120110;27;19923;-83
2021/12/23 02:40:51;;;;;;;;;;;0.00;99.90;;;;;;5136334;27;19930;-83
2021/12/23 02:43:18;;;;;;;;;;;0.00;99.90;;;;;;5118200;27;19927;-83
2021/12/23 02:45:45;;;;;;;;;;;0.00;99.90;;;;;;5119851;27;19923;-83
2021/12/23 02:48:13;;;;;;;;;;;0.00;99.90;;;;;;5118035;27;19946;-83
2021/12/23 02:50:39;;;;;;;;;;;0.00;99.90;;;;;;5118533;27;19923;-83
2021/12/23 02:53:04;;;;;;;;;;;0.00;99.90;;;;;;5118749;27;19970;-83
2021/12/23 02:55:30;;;;;;;;;;;0.00;99.90;;;;;;5103049;27;19923;-83
2021/12/23 02:57:56;;;;;;;;;;;0.00;99.90;;;;;;5102704;27;19930;-83
2021/12/23 03:00:21;;;;;;;;;;;0.00;99.90;;;;;;5119858;27;20006;-83
2021/12/23 03:02:47;;;;;;;;;;;0.00;99.90;;;;;;5103223;27;19933;-83
2021/12/23 03:05:13;;;;;;;;;;;0.00;99.90;;;;;;5102204;27;19924;-83
2021/12/23 03:07:38;;;;;;;;;;;0.00;99.90;;;;;;5102427;27;19927;-83
2021/12/23 03:10:05;;;;;;;;;;;0.00;99.90;;;;;;5137625;27;19968;-83
2021/12/23 03:12:31;;;;;;;;;;;0.00;99.90;;;;;;5120184;27;19923;-84
2021/12/23 03:14:57;;;;;;;;;;;0.00;99.90;;;;;;5121247;27;19927;-83
2021/12/23 03:17:22;;;;;;;;;;;0.00;99.90;;;;;;5157838;27;19923;-83
2021/12/23 03:19:48;;;;;;;;;;;0.00;99.90;;;;;;5123498;27;20287;-83
2021/12/23 03:22:13;;;;;;;;;;;0.00;99.90;;;;;;5120209;27;20364;-83
2021/12/23 03:24:39;;;;;;;;;;;0.00;99.90;;;;;;5118985;27;20283;-83
2021/12/23 03:27:05;;;;;;;;;;;0.10;99.90;;;;;;5102676;27;19962;-83
2021/12/23 03:29:30;;;;;;;;;;;0.00;99.90;;;;;;5119252;27;19923;-83
2021/12/23 03:31:56;;;;;;;;;;;0.00;99.90;;;;;;5102660;27;20264;-83
2021/12/23 03:34:21;;;;;;;;;;;0.00;99.90;;;;;;5118897;27;19923;-84
2021/12/23 03:36:47;;;;;;;;;;;0.00;99.90;;;;;;5099235;28;19988;-83
2021/12/23 03:39:13;;;;;;;;;;;0.00;99.90;;;;;;5100665;27;19931;-83
2021/12/23 03:41:38;;;;;;;;;;;0.00;99.90;;;;;;5113553;27;19998;-83
2021/12/23 03:44:04;;;;;;;;;;;0.00;99.90;;;;;;5118257;27;19968;-83
2021/12/23 03:46:29;;;;;;;;;;;0.00;99.90;;;;;;5118321;27;20126;-83
2021/12/23 03:48:55;;;;;;;;;;;0.00;99.90;;;;;;5115691;28;19924;-83
2021/12/23 03:51:21;;;;;;;;;;;0.00;99.90;;;;;;5112975;27;19946;-83
2021/12/23 03:53:46;;;;;;;;;;;0.00;99.90;;;;;;5119674;27;19923;-83
2021/12/23 03:56:13;;;;;;;;;;;0.00;99.90;;;;;;5118800;27;19924;-84
2021/12/23 03:58:39;;;;;;;;;;;0.10;99.90;;;;;;5136720;27;20356;-82
2021/12/23 04:01:05;;;;;;;;;;;0.10;99.90;;;;;;5118606;27;20006;-83
2021/12/23 04:03:31;;;;;;;;;;;0.10;99.90;;;;;;5119343;27;19992;-83
2021/12/23 04:05:56;;;;;;;;;;;0.10;99.90;;;;;;5136119;27;19962;-83
2021/12/23 04:08:22;;;;;;;;;;;0.10;99.90;;;;;;5098516;28;19923;-83
2021/12/23 04:10:47;;;;;;;;;;;0.10;99.90;;;;;;5099086;27;19923;-83
2021/12/23 04:13:13;;;;;;;;;;;0.10;99.90;;;;;;5118908;27;19927;-83
2021/12/23 04:15:39;;;;;;;;;;;0.20;99.90;;;;;;5119240;27;19923;-84
2021/12/23 04:18:04;;;;;;;;;;;0.10;99.90;;;;;;5119322;27;20401;-83
2021/12/23 04:20:34;;;;;;;;;;;0.10;99.90;;;;;;5118878;27;19923;-83
2021/12/23 04:23:00;;;;;;;;;;;0.20;99.90;;;;;;5118946;27;19923;-82
2021/12/23 04:25:27;;;;;;;;;;;0.10;99.90;;;;;;5121910;27;19946;-83
2021/12/23 04:27:54;;;;;;;;;;;0.10;99.90;;;;;;5140105;27;19923;-83
2021/12/23 04:30:20;;;;;;;;;;;0.10;99.90;;;;;;5122201;27;19946;-83
2021/12/23 04:32:46;;;;;;;;;;;0.20;99.90;;;;;;5139504;27;19923;-83
2021/12/23 04:35:12;;;;;;;;;;;0.20;99.90;;;;;;5122591;27;19930;-83
2021/12/23 04:37:38;;;;;;;;;;;0.10;99.90;;;;;;5122330;27;19933;-83
2021/12/23 04:40:06;;;;;;;;;;;0.20;99.90;;;;;;5122728;27;20387;-83
2021/12/23 04:42:32;;;;;;;;;;;0.20;99.90;;;;;;5121904;27;20017;-83
2021/12/23 04:44:57;;;;;;;;;;;0.20;99.90;;;;;;5139433;27;19966;-84
2021/12/23 04:47:23;;;;;;;;;;;0.20;99.90;;;;;;5100643;27;19975;-83
2021/12/23 04:49:48;;;;;;;;;;;0.20;99.90;;;;;;5096948;28;19968;-83
2021/12/23 04:52:14;;;;;;;;;;;0.20;99.90;;;;;;5118747;27;19967;-83
2021/12/23 04:54:40;;;;;;;;;;;0.20;99.90;;;;;;5119020;27;19935;-82
2021/12/23 04:57:06;;;;;;;;;;;0.20;99.90;;;;;;5135960;27;19931;-82
2021/12/23 04:59:32;;;;;;;;;;;0.20;99.90;;;;;;5118280;27;20379;-83
2021/12/23 05:01:57;;;;;;;;;;;0.30;99.90;;;;;;5135669;27;19934;-82
2021/12/23 05:04:23;;;;;;;;;;;0.30;99.90;;;;;;5118871;27;19924;-82
2021/12/23 05:06:48;;;;;;;;;;;0.30;99.90;;;;;;5118658;27;19972;-82
2021/12/23 05:09:14;;;;;;;;;;;0.30;99.90;;;;;;5117062;27;19924;-83
2021/12/23 05:11:39;;;;;;;;;;;0.40;99.90;;;;;;5118669;27;19980;-83
2021/12/23 05:14:05;;;;;;;;;;;0.30;99.90;;;;;;5118176;27;20014;-82
2021/12/23 05:16:31;;;;;;;;;;;0.40;99.90;;;;;;5098067;28;19930;-83
2021/12/23 05:18:56;;;;;;;;;;;0.30;99.90;;;;;;5119877;27;20458;-82
2021/12/23 05:21:22;;;;;;;;;;;0.30;99.90;;;;;;5114592;28;19931;-83
2021/12/23 05:23:47;;;;;;;;;;;0.30;99.90;;;;;;5098192;28;19924;-83
2021/12/23 05:26:13;;;;;;;;;;;0.40;99.90;;;;;;5104611;27;19924;-83
2021/12/23 05:28:39;;;;;;;;;;;0.40;99.90;;;;;;5135537;27;19998;-82
2021/12/23 05:31:05;;;;;;;;;;;0.50;99.90;;;;;;5099169;27;19924;-83
2021/12/23 05:33:30;;;;;;;;;;;0.40;99.90;;;;;;5097572;28;19930;-83
2021/12/23 05:35:56;;;;;;;;;;;0.40;99.90;;;;;;5097071;27;19928;-83
2021/12/23 05:38:22;;;;;;;;;;;0.40;99.90;;;;;;5097651;28;19923;-82
2021/12/23 05:40:47;;;;;;;;;;;0.40;99.90;;;;;;5108041;27;19927;-82
2021/12/23 05:43:13;;;;;;;;;;;0.40;99.90;;;;;;5116742;27;19923;-81
2021/12/23 05:45:39;;;;;;;;;;;0.40;99.90;;;;;;5116007;27;19924;-82
2021/12/23 05:48:05;;;;;;;;;;;0.40;99.90;;;;;;5117368;27;19931;-82
2021/12/23 05:50:30;;;;;;;;;;;0.40;99.90;;;;;;5134545;27;19931;-82
2021/12/23 05:52:56;;;;;;;;;;;0.40;99.90;;;;;;5130164;27;19969;-82
2021/12/23 05:55:22;;;;;;;;;;;0.40;99.90;;;;;;5114193;28;19924;-82
2021/12/23 05:57:48;;;;;;;;;;;0.40;99.90;;;;;;5116241;27;19923;-81
2021/12/23 06:00:15;;;;;;;;;;;0.40;99.90;;;;;;5117836;27;19978;-82
2021/12/23 06:02:41;;;;;;;;;;;0.40;99.90;;;;;;5134396;27;19923;-82
2021/12/23 06:05:07;;;;;;;;;;;0.40;99.90;;;;;;5117751;27;20288;-83
2021/12/23 06:07:33;;;;;;;;;;;0.40;99.90;;;;;;5134424;27;19924;-82
2021/12/23 06:09:59;;;;;;;;;;;0.40;99.90;;;;;;5135070;27;20424;-82
2021/12/23 06:12:24;;;;;;;;;;;0.40;99.90;;;;;;5134433;27;20019;-82
2021/12/23 06:14:50;;;;;;;;;;;0.40;99.90;;;;;;5134980;27;19930;-82
2021/12/23 06:17:15;;;;;;;;;;;0.40;99.90;;;;;;5097258;28;19931;-82
2021/12/23 06:19:41;;;;;;;;;;;0.40;99.90;;;;;;5115112;28;20372;-82
2021/12/23 06:22:07;;;;;;;;;;;0.40;99.90;;;;;;5090478;27;19928;-81
2021/12/23 06:24:32;;;;;;;;;;;0.40;99.90;;;;;;5116736;27;19977;-82
2021/12/23 06:26:58;;;;;;;;;;;0.50;99.90;;;;;;5092947;28;20003;-82
2021/12/23 06:29:23;;;;;;;;;;;0.40;99.90;;;;;;5096899;28;19924;-82
2021/12/23 06:31:49;;;;;;;;;;;0.40;99.90;;;;;;5118720;27;19923;-82
2021/12/23 06:34:15;;;;;;;;;;;0.40;99.90;;;;;;5117079;27;19923;-82
2021/12/23 06:36:41;;;;;;;;;;;0.50;99.90;;;;;;5133613;27;19931;-82
2021/12/23 06:39:07;;;;;;;;;;;0.50;99.90;;;;;;5116646;27;19933;-83
2021/12/23 06:41:32;;;;;;;;;;;0.50;99.90;;;;;;5116152;27;20274;-86
2021/12/23 06:43:58;;;;;;;;;;;0.50;99.90;;;;;;5096542;28;19972;-83
2021/12/23 06:46:23;;;;;;;;;;;0.50;99.90;;;;;;5127628;27;19924;-82
2021/12/23 06:48:49;;;;;;;;;;;0.50;99.90;;;;;;5128419;27;19938;-83
2021/12/23 06:51:15;;;;;;;;;;;0.50;99.90;;;;;;5111964;28;20352;-80
2021/12/23 06:53:40;;;;;;;;;;;0.60;99.90;;;;;;5104467;27;19924;-83
2021/12/23 06:56:06;;;;;;;;;;;0.60;99.90;;;;;;5099951;27;19923;-84
2021/12/23 06:58:32;;;;;;;;;;;0.50;99.90;;;;;;5132433;27;19924;-84
2021/12/23 07:00:58;;;;;;;;;;;0.50;99.90;;;;;;5132690;27;19930;-87
2021/12/23 07:03:40;;;;;;;;;;;0.50;99.90;;;;;;5123718;27;19924;-84
2021/12/23 07:06:07;;;;;;;;;;;0.60;99.90;;;;;;5125487;27;19929;-83
2021/12/23 07:08:35;;;;;;;;;;;0.60;99.90;;;;;;5093935;27;19930;-85
2021/12/23 07:11:00;;;;;;;;;;;0.60;99.90;;;;;;5093589;27;19929;-84
2021/12/23 07:13:26;;;;;;;;;;;0.60;99.90;;;;;;5096841;28;19923;-83
2021/12/23 07:15:52;;;;;;;;;;;0.60;99.90;;;;;;5132933;27;19924;-82
2021/12/23 07:18:18;;;;;;;;;;;0.60;99.90;;;;;;5116161;28;19935;-81
2021/12/23 07:20:43;;;;;;;;;;;0.60;99.90;;;;;;5110310;28;19924;-84
2021/12/23 07:23:09;;;;;;;;;;;0.60;99.90;;;;;;5095852;28;20433;-84
2021/12/23 07:25:35;;;;;;;;;;;0.60;99.90;;;;;;5121245;28;19923;-83
2021/12/23 07:28:01;;;;;;;;;;;0.60;99.90;;;;;;5116940;28;20372;-86
2021/12/23 07:30:26;;;;;;;;;;;0.60;99.90;;;;;;5100544;28;19991;-87
2021/12/23 07:32:54;;;;;;;;;;;0.70;99.90;;;;;;5110204;28;19930;-86
2021/12/23 07:35:19;;;;;;;;;;;0.60;99.90;;;;;;5114834;28;19931;-84
2021/12/23 07:37:45;;;;;;;;;;;0.70;99.90;;;;;;5137701;28;19958;-88
2021/12/23 07:40:14;;;;;;;;;;;0.70;99.90;;;;;;5143328;28;19926;-87
2021/12/23 07:42:42;;;;;;;;;;;0.70;99.90;;;;;;5112047;28;19974;-85
2021/12/23 07:45:08;;;;;;;;;;;0.70;99.90;;;;;;5115508;28;21503;-85
2021/12/23 07:47:35;;;;;;;;;;;0.70;99.90;;;;;;5133509;28;19920;-86
2021/12/23 07:50:01;;;;;;;;;;;0.70;99.90;;;;;;5136523;27;20021;-83
2021/12/23 07:52:26;;;;;;;;;;;0.80;99.90;;;;;;5136694;27;20360;-85
2021/12/23 07:54:52;;;;;;;;;;;0.70;99.90;;;;;;5119145;27;20016;-85
2021/12/23 07:57:18;;;;;;;;;;;0.70;99.90;;;;;;5136321;27;19923;-86
2021/12/23 07:59:43;;;;;;;;;;;0.80;99.90;;;;;;5121897;27;20370;-86
2021/12/23 08:02:09;;;;;;;;;;;0.70;99.90;;;;;;5140560;27;19923;-85
2021/12/23 08:04:35;;;;;;;;;;;0.70;99.90;;;;;;5140726;27;19923;-85
2021/12/23 08:07:03;;;;;;;;;;;0.70;99.90;;;;;;5140353;27;20010;-86
2021/12/23 08:09:28;;;;;;;;;;;0.70;99.90;;;;;;5140984;27;20027;-86
2021/12/23 08:11:54;;;;;;;;;;;0.70;99.90;;;;;;5088342;27;20370;-86
2021/12/23 08:14:20;;;;;;;;;;;0.70;99.90;;;;;;5135103;27;19929;-86
2021/12/23 08:16:45;;;;;;;;;;;0.70;99.90;;;;;;5140155;27;20270;-86
2021/12/23 08:19:11;;;;;;;;;;;0.70;99.90;;;;;;5123148;27;19923;-86
2021/12/23 08:21:37;;;;;;;;;;;0.70;99.90;;;;;;5106262;27;20100;-85
2021/12/23 08:24:02;;;;;;;;;;;0.70;99.90;;;;;;5106294;27;20347;-86
2021/12/23 08:26:29;;;;;;;;;;;0.80;99.90;;;;;;5123107;27;20389;-86
2021/12/23 08:28:56;;;;;;;;;;;0.80;99.90;;;;;;5122350;27;19923;-85
2021/12/23 08:31:22;;;;;;;;;;;0.80;99.90;;;;;;5123288;27;19923;-85
2021/12/23 08:33:48;;;;;;;;;;;0.90;99.90;;;;;;5123042;27;19931;-85
2021/12/23 08:36:14;;;;;;;;;;;0.80;99.90;;;;;;5122972;27;20279;-85
2021/12/23 08:38:40;;;;;;;;;;;0.90;99.90;;;;;;5139940;27;19929;-86
2021/12/23 08:41:06;;;;;;;;;;;0.80;99.90;;;;;;5122205;27;19923;-86
2021/12/23 08:43:31;;;;;;;;;;;0.90;99.90;;;;;;5139979;27;19923;-86
2021/12/23 08:45:57;;;;;;;;;;;0.90;99.90;;;;;;5122866;27;20286;-85
2021/12/23 08:48:23;;;;;;;;;;;0.90;99.90;;;;;;5118670;27;19923;-85
2021/12/23 08:50:48;;;;;;;;;;;0.90;99.90;;;;;;5136293;27;19931;-85
2021/12/23 08:53:14;;;;;;;;;;;0.90;99.90;;;;;;5119052;27;19923;-86
2021/12/23 08:55:39;;;;;;;;;;;0.90;99.90;;;;;;5136504;27;19927;-86
2021/12/23 08:58:05;;;;;;;;;;;0.90;99.90;;;;;;5119250;27;20378;-86
2021/12/23 09:00:31;;;;;;;;;;;0.90;99.90;;;;;;5098363;28;19977;-86
2021/12/23 09:02:57;;;;;;;;;;;0.90;99.90;;;;;;5129383;27;20299;-88
2021/12/23 09:05:23;;;;;;;;;;;0.90;99.90;;;;;;5119930;27;19924;-88
2021/12/23 09:07:50;;;;;;;;;;;0.90;99.90;;;;;;5119861;27;19930;-88
2021/12/23 09:10:16;;;;;;;;;;;1.00;99.90;;;;;;5119210;27;20006;-88
2021/12/23 09:12:42;;;;;;;;;;;0.90;99.90;;;;;;5119274;27;19928;-87
2021/12/23 09:15:08;;;;;;;;;;;0.90;99.90;;;;;;5119555;27;19927;-88
2021/12/23 09:17:34;;;;;;;;;;;0.90;99.90;;;;;;5102810;27;19947;-88
2021/12/23 09:19:59;;;;;;;;;;;0.90;99.90;;;;;;5138475;27;19923;-88
2021/12/23 09:22:25;;;;;;;;;;;0.90;99.90;;;;;;5124176;27;19974;-87
2021/12/23 09:24:56;;;;;;;;;;;1.00;99.90;;;;;;5158627;27;19914;-85
2021/12/23 09:27:30;;;;;;;;;;;0.90;99.90;;;;;;5157659;27;20325;-87
2021/12/23 09:32:52;;;;;;;;;;;0.90;99.90;;;;;;5136173;27;19923;-87
2021/12/23 09:35:18;;;;;;;;;;;0.90;99.90;;;;;;5113486;28;19975;-87
2021/12/23 09:37:43;;;;;;;;;;;0.90;99.90;;;;;;5135596;27;19931;-83
2021/12/23 09:40:09;;;;;;;;;;;0.90;99.90;;;;;;5118653;27;19923;-87
2021/12/23 09:42:35;;;;;;;;;;;0.90;99.90;;;;;;5118803;27;19923;-92
2021/12/23 09:45:04;;;;;;;;;;;0.90;99.90;;;;;;5136798;27;19923;-92
2021/12/23 09:47:31;;;;;;;;;;;0.90;99.90;;;;;;5115707;28;19923;-89
2021/12/23 09:49:58;;;;;;;;;;;1.00;99.90;;;;;;5134709;27;19935;-86
2021/12/23 09:52:26;;;;;;;;;;;0.90;99.90;;;;;;5111179;27;20387;-85
2021/12/23 09:54:52;;;;;;;;;;;0.90;99.90;;;;;;5130068;27;19946;-84
2021/12/23 09:57:18;;;;;;;;;;;0.90;99.90;;;;;;5108985;27;19924;-87
2021/12/23 09:59:44;;;;;;;;;;;1.00;99.90;;;;;;5110407;27;19931;-84
2021/12/23 10:02:09;;;;;;;;;;;0.90;99.90;;;;;;5131366;27;19923;-85
2021/12/23 10:04:35;;;;;;;;;;;1.00;99.90;;;;;;5122231;27;20018;-82
2021/12/23 10:07:01;;;;;;;;;;;1.00;99.90;;;;;;5128646;27;19959;-81
2021/12/23 10:09:48;;;;;;;;;;;1.00;99.90;;;;;;5129828;27;20350;-82
2021/12/23 10:31:59;;;;;;;;;;;1.00;99.90;;;;;;5125739;27;20284;-89
2021/12/23 10:37:06;;;;;;;;;;;1.00;99.90;;;;;;5112310;27;19930;-92
2021/12/23 10:39:35;;;;;;;;;;;1.00;99.90;;;;;;5111909;27;19988;-92
2021/12/23 10:42:07;;;;;;;;;;;1.00;99.90;;;;;;5116935;27;19928;-88
2021/12/23 10:44:33;;;;;;;;;;;1.00;99.90;;;;;;5116693;27;19923;-88
2021/12/23 10:46:59;;;;;;;;;;;1.00;99.90;;;;;;5133407;27;19930;-84
2021/12/23 10:49:53;;;;;;;;;;;1.00;99.90;;;;;;5115769;27;20569;-86
2021/12/23 10:52:24;;;;;;;;;;;1.10;99.90;;;;;;5132602;27;19938;-87
2021/12/23 11:00:26;;;;;;;;;;;1.10;99.90;;;;;;5133336;27;19923;-85
2021/12/23 11:03:05;;;;;;;;;;;1.10;99.90;;;;;;5133282;27;19923;-83
2021/12/23 11:05:36;;;;;;;;;;;1.10;99.90;;;;;;5119873;27;20373;-84
2021/12/23 11:08:14;;;;;;;;;;;1.10;99.90;;;;;;5116198;27;19923;-85
2021/12/23 11:38:32;;;;;;;;;;;1.30;99.90;;;;;;5130361;27;19924;-86
2021/12/23 11:41:03;;;;;;;;;;;1.30;99.90;;;;;;5128764;27;19927;-85
2021/12/23 11:43:43;;;;;;;;;;;1.30;99.90;;;;;;5123527;27;19923;-86
2021/12/23 11:46:10;;;;;;;;;;;1.40;99.90;;;;;;5098686;28;19963;-86
2021/12/23 11:48:41;;;;;;;;;;;1.40;99.90;;;;;;5134772;27;19928;-85
2021/12/23 11:51:09;;;;;;;;;;;1.40;99.90;;;;;;5119885;27;20281;-86
2021/12/23 11:53:36;;;;;;;;;;;1.40;99.90;;;;;;5097963;27;20016;-86
2021/12/23 11:56:03;;;;;;;;;;;1.40;99.90;;;;;;5135394;27;19930;-86
2021/12/23 11:58:29;;;;;;;;;;;1.50;99.90;;;;;;5118707;27;19927;-86
2021/12/23 12:01:06;;;;;;;;;;;1.40;99.90;;;;;;5126607;27;19931;-85
2021/12/23 12:03:37;;;;;;;;;;;1.50;99.90;;;;;;5110487;27;19971;-86
2021/12/23 12:06:13;;;;;;;;;;;1.50;99.90;;;;;;5118537;27;19958;-86
2021/12/23 12:08:39;;;;;;;;;;;1.50;99.90;;;;;;5117441;27;20025;-86
2021/12/23 12:11:15;;;;;;;;;;;1.60;99.90;;;;;;5135485;27;20014;-85
2021/12/23 12:13:41;;;;;;;;;;;1.50;99.90;;;;;;5107153;27;19959;-86
2021/12/23 12:16:26;;;;;;;;;;;1.60;99.90;;;;;;5135616;27;19966;-85
2021/12/23 12:18:52;;;;;;;;;;;1.50;99.90;;;;;;5136046;27;20276;-86
2021/12/23 12:21:44;;;;;;;;;;;1.60;99.90;;;;;;5117852;27;19960;-86
2021/12/23 12:24:17;;;;;;;;;;;1.60;99.90;;;;;;5113819;27;19924;-86
2021/12/23 12:26:51;;;;;;;;;;;1.60;99.90;;;;;;5135961;27;20375;-87
2021/12/23 12:29:19;;;;;;;;;;;1.60;99.90;;;;;;5140742;27;19920;-87
2021/12/23 12:31:45;;;;;;;;;;;1.60;99.90;;;;;;5123727;27;20061;-86
2021/12/23 12:34:12;;;;;;;;;;;1.60;99.90;;;;;;5141204;27;19911;-86
2021/12/23 12:36:41;;;;;;;;;;;1.70;99.90;;;;;;5138901;27;19972;-86
2021/12/23 12:39:10;;;;;;;;;;;1.70;99.90;;;;;;5137100;27;20667;-85
2021/12/23 12:41:36;;;;;;;;;;;1.70;99.90;;;;;;5134946;27;19941;-85
2021/12/23 12:44:05;;;;;;;;;;;1.70;99.90;;;;;;5118047;27;19923;-87
2021/12/23 12:46:37;;;;;;;;;;;1.70;99.90;;;;;;5135351;27;19934;-89
2021/12/23 12:49:14;;;;;;;;;;;1.80;99.90;;;;;;5118382;27;19923;-90
2021/12/23 12:51:42;;;;;;;;;;;1.80;99.90;;;;;;5118311;27;20302;-91
2021/12/23 12:54:14;;;;;;;;;;;1.80;99.90;;;;;;5132898;27;19931;-87
2021/12/23 12:56:46;;;;;;;;;;;1.90;99.90;;;;;;5116254;27;20268;-84
2021/12/23 12:59:12;;;;;;;;;;;1.80;99.90;;;;;;5134880;27;19928;-84
2021/12/23 13:01:42;;;;;;;;;;;1.90;99.90;;;;;;5113334;28;20457;-89
2021/12/23 13:04:26;;;;;;;;;;;1.80;99.90;;;;;;5119063;28;19931;-87
2021/12/23 13:06:53;;;;;;;;;;;1.80;99.90;;;;;;5128181;27;19930;-85
2021/12/23 13:09:29;;;;;;;;;;;1.90;99.90;;;;;;5148886;27;20031;-85
2021/12/23 13:11:58;;;;;;;;;;;1.80;99.90;;;;;;5121943;27;19930;-86
2021/12/23 13:14:44;;;;;;;;;;;2.00;99.90;;;;;;5148366;27;19945;-86
2021/12/23 13:17:09;;;;;;;;;;;1.90;99.90;;;;;;5147584;27;19928;-85
2021/12/23 13:19:35;;;;;;;;;;;1.90;99.90;;;;;;5132914;27;20052;-85
2021/12/23 13:22:05;;;;;;;;;;;1.90;99.90;;;;;;5109785;28;20437;-86
2021/12/23 13:24:32;;;;;;;;;;;1.90;99.90;;;;;;5135077;27;19927;-86
2021/12/23 13:26:58;;;;;;;;;;;1.90;99.90;;;;;;5121401;28;20031;-86
2021/12/23 13:29:28;;;;;;;;;;;1.90;99.90;;;;;;5099937;28;19923;-86
2021/12/23 13:31:55;;;;;;;;;;;1.80;99.90;;;;;;5099425;27;19924;-85
2021/12/23 13:34:22;;;;;;;;;;;1.90;99.90;;;;;;5117657;27;20033;-86
2021/12/23 13:36:47;;;;;;;;;;;1.80;99.90;;;;;;5135237;27;20022;-87
2021/12/23 13:39:14;;;;;;;;;;;1.90;99.90;;;;;;5134812;27;20332;-86
2021/12/23 13:41:44;;;;;;;;;;;1.80;99.90;;;;;;5134318;27;19995;-86
2021/12/23 13:44:15;;;;;;;;;;;1.90;99.90;;;;;;5134778;27;19958;-88
2021/12/23 13:46:45;;;;;;;;;;;1.90;99.90;;;;;;5118513;27;19934;-90
2021/12/23 13:49:11;;;;;;;;;;;1.90;99.90;;;;;;5113890;28;20311;-86
2021/12/23 13:51:38;;;;;;;;;;;1.90;99.90;;;;;;5127723;27;19924;-86
2021/12/23 13:54:06;;;;;;;;;;;1.90;99.90;;;;;;5123003;27;20415;-86
2021/12/23 13:56:33;;;;;;;;;;;1.90;99.90;;;;;;5116970;27;20015;-84
2021/12/23 13:59:06;;;;;;;;;;;1.80;99.90;;;;;;5104631;27;19946;-85
2021/12/23 14:01:32;;;;;;;;;;;1.80;99.90;;;;;;5117612;27;19935;-85
2021/12/23 14:03:57;;;;;;;;;;;1.90;99.90;;;;;;5115840;27;19931;-85
2021/12/23 14:06:23;;;;;;;;;;;1.90;99.90;;;;;;5104891;27;19923;-87
2021/12/23 14:08:48;;;;;;;;;;;1.80;99.90;;;;;;5117502;27;19971;-85
2021/12/23 14:11:14;;;;;;;;;;;1.90;99.90;;;;;;5126081;27;19923;-86
2021/12/23 14:13:39;;;;;;;;;;;1.90;99.90;;;;;;5101861;28;19927;-86
2021/12/23 14:16:05;;;;;;;;;;;1.90;99.90;;;;;;5112503;27;20425;-85
2021/12/23 14:23:45;;;;;;;;;;;1.90;99.90;;;;;;5128334;27;19924;-83
2021/12/23 14:26:22;;;;;;;;;;;2.00;99.90;;;;;;5118741;27;20014;-83
2021/12/23 14:28:52;;;;;;;;;;;2.00;99.90;;;;;;5118286;27;19935;-83
2021/12/23 14:31:22;;;;;;;;;;;2.00;99.90;;;;;;5115555;27;19952;-85
2021/12/23 14:33:58;;;;;;;;;;;2.00;99.90;;;;;;5133708;27;20014;-86
2021/12/23 14:36:25;;;;;;;;;;;2.00;99.90;;;;;;5115925;27;20284;-85
2021/12/23 14:38:59;;;;;;;;;;;2.10;99.90;;;;;;5134008;27;19923;-85
2021/12/23 14:41:25;;;;;;;;;;;2.10;99.90;;;;;;5115974;27;19971;-85
2021/12/23 14:43:59;;;;;;;;;;;2.00;99.90;;;;;;5115424;27;19927;-85
2021/12/23 14:46:27;;;;;;;;;;;2.10;99.90;;;;;;5131911;27;19927;-84
2021/12/23 14:51:30;;;;;;;;;;;2.10;99.90;;;;;;5132838;27;19923;-84
2021/12/23 14:54:09;;;;;;;;;;;2.10;99.90;;;;;;5133977;27;19980;-82
2021/12/23 14:56:39;;;;;;;;;;;2.20;99.90;;;;;;5133716;27;20000;-83
2021/12/23 14:59:07;;;;;;;;;;;2.20;99.90;;;;;;5133296;27;19998;-83
2021/12/23 15:01:33;;;;;;;;;;;2.20;99.90;;;;;;5102246;27;19930;-82
2021/12/23 15:04:09;;;;;;;;;;;2.20;99.90;;;;;;5125856;27;19930;-82
2021/12/23 15:06:55;;;;;;;;;;;2.20;99.90;;;;;;5115469;27;19923;-83
2021/12/23 15:09:21;;;;;;;;;;;2.30;99.90;;;;;;5112645;28;19938;-84
2021/12/23 15:11:47;;;;;;;;;;;2.30;99.90;;;;;;5121934;27;20368;-83
2021/12/23 15:14:16;;;;;;;;;;;2.50;99.90;;;;;;5123750;27;19924;-82
2021/12/23 15:16:42;;;;;;;;;;;2.40;99.90;;;;;;5127232;27;19931;-84
2021/12/23 15:19:27;;;;;;;;;;;2.40;99.90;;;;;;5127592;27;19932;-85
2021/12/23 15:21:55;;;;;;;;;;;2.40;99.90;;;;;;5114718;28;20304;-84
2021/12/23 15:24:20;;;;;;;;;;;2.40;99.90;;;;;;5106779;28;20395;-86
2021/12/23 15:26:49;;;;;;;;;;;2.40;99.90;;;;;;5105991;28;19975;-85
2021/12/23 15:29:16;;;;;;;;;;;2.40;99.90;;;;;;5126609;27;20002;-85
2021/12/23 15:31:50;;;;;;;;;;;2.60;99.90;;;;;;5102041;28;19969;-83
2021/12/23 15:34:16;;;;;;;;;;;2.40;99.90;;;;;;5110937;28;19928;-82
2021/12/23 15:36:42;;;;;;;;;;;2.50;99.90;;;;;;5096700;28;20257;-83
2021/12/23 15:39:19;;;;;;;;;;;2.50;99.90;;;;;;5103878;28;19978;-83
2021/12/23 15:41:45;;;;;;;;;;;2.50;99.90;;;;;;5135155;28;19923;-83